Overview Statistics Trail Chart Weather Telemetry Raw packets
 

This is the latest recevied weather packets stored in our database for station/object PU5FJO-13. If no packets are shown the sender has not sent any weather packets the latest 10 day(s).

<< 13 14 15 16 17 18 19 >>
Time Temp. Humidity Pressure Rain* Wind** Luminosity Snow
1777602969 20° C 75% 1021.2 hPa - - - -
1777602369 20° C 76% 1021.3 hPa - - - -
1777601769 19.44° C 77% 1021.4 hPa - - - -
1777601169 18.33° C 83% 1021.4 hPa - - - -
1777600569 18.33° C 82% 1021.3 hPa - - - -
1777599969 19.44° C 79% 1021.3 hPa - - - -
1777599369 19.44° C 78% 1021.3 hPa - - - -
1777598769 19.44° C 77% 1021.4 hPa - - - -
1777598169 18.33° C 80% 1021.5 hPa - - - -
1777597569 21.11° C 72% 1021.3 hPa - - - -
1777596969 21.11° C 71% 1021.3 hPa - - - -
1777596369 21.11° C 73% 1021.3 hPa - - - -
1777595769 20.56° C 75% 1021.2 hPa - - - -
1777595169 20.56° C 74% 1021.2 hPa - - - -
1777594569 20.56° C 74% 1021.1 hPa - - - -
1777593969 19.44° C 78% 1021.1 hPa - - - -
1777593370 20° C 78% 1021.1 hPa - - - -
1777592769 21.67° C 72% 1021 hPa - - - -
1777592169 21.11° C 72% 1020.9 hPa - - - -
1777591569 21.11° C 74% 1020.7 hPa - - - -
1777590969 21.11° C 74% 1020.6 hPa - - - -
1777590369 20.56° C 76% 1020.5 hPa - - - -
1777589769 20.56° C 75% 1020.3 hPa - - - -
1777589169 20.56° C 76% 1020.1 hPa - - - -
1777588569 21.11° C 74% 1020 hPa - - - -

* Rain since midnight (hover to see other rain measurements)
** Current wind speed in m/s (hover to see current wind gust speed)